sensor_id;sensor_type;location;lat;lon;timestamp;P1;durP1;ratioP1;P2;durP2;ratioP2
20014;SDS011;61787;42.022;23.078;2023-09-19T00:00:59;9.40;;;8.50;;
20014;SDS011;61787;42.022;23.078;2023-09-19T00:02:01;10.43;;;9.35;;
20014;SDS011;61787;42.022;23.078;2023-09-19T00:03:06;10.43;;;9.07;;
20014;SDS011;61787;42.022;23.078;2023-09-19T00:04:08;11.25;;;9.45;;
20014;SDS011;61787;42.022;23.078;2023-09-19T00:05:11;11.73;;;10.48;;
20014;SDS011;61787;42.022;23.078;2023-09-19T00:06:13;13.07;;;10.80;;
20014;SDS011;61787;42.022;23.078;2023-09-19T00:07:15;11.25;;;10.13;;
20014;SDS011;61787;42.022;23.078;2023-09-19T00:08:17;12.82;;;10.25;;
20014;SDS011;61787;42.022;23.078;2023-09-19T00:09:23;11.23;;;9.90;;
20014;SDS011;61787;42.022;23.078;2023-09-19T00:10:28;11.98;;;10.38;;
20014;SDS011;61787;42.022;23.078;2023-09-19T00:11:32;11.82;;;10.52;;
20014;SDS011;61787;42.022;23.078;2023-09-19T00:12:36;12.38;;;11.07;;
20014;SDS011;61787;42.022;23.078;2023-09-19T00:13:37;12.80;;;11.43;;
20014;SDS011;61787;42.022;23.078;2023-09-19T00:14:39;14.67;;;11.77;;
20014;SDS011;61787;42.022;23.078;2023-09-19T00:15:42;13.13;;;11.40;;
20014;SDS011;61787;42.022;23.078;2023-09-19T00:16:50;13.83;;;11.33;;
20014;SDS011;61787;42.022;23.078;2023-09-19T00:17:52;12.43;;;11.13;;
20014;SDS011;61787;42.022;23.078;2023-09-19T00:18:54;14.32;;;11.63;;
20014;SDS011;61787;42.022;23.078;2023-09-19T00:19:56;14.20;;;11.07;;
20014;SDS011;61787;42.022;23.078;2023-09-19T00:20:58;11.68;;;10.45;;
20014;SDS011;61787;42.022;23.078;2023-09-19T00:22:00;14.23;;;11.48;;
20014;SDS011;61787;42.022;23.078;2023-09-19T00:23:02;15.07;;;11.95;;
20014;SDS011;61787;42.022;23.078;2023-09-19T00:24:10;15.40;;;11.65;;
20014;SDS011;61787;42.022;23.078;2023-09-19T00:25:13;13.10;;;11.43;;
20014;SDS011;61787;42.022;23.078;2023-09-19T00:26:17;13.40;;;11.73;;
20014;SDS011;61787;42.022;23.078;2023-09-19T00:27:19;12.95;;;11.57;;
20014;SDS011;61787;42.022;23.078;2023-09-19T00:28:21;12.10;;;10.80;;
20014;SDS011;61787;42.022;23.078;2023-09-19T00:29:23;12.68;;;11.20;;
20014;SDS011;61787;42.022;23.078;2023-09-19T00:30:24;12.70;;;10.55;;
20014;SDS011;61787;42.022;23.078;2023-09-19T00:31:26;13.73;;;10.23;;
20014;SDS011;61787;42.022;23.078;2023-09-19T00:32:28;12.90;;;10.15;;
20014;SDS011;61787;42.022;23.078;2023-09-19T00:33:33;14.02;;;10.93;;
20014;SDS011;61787;42.022;23.078;2023-09-19T00:34:35;15.68;;;11.00;;
20014;SDS011;61787;42.022;23.078;2023-09-19T00:35:37;14.40;;;10.55;;
20014;SDS011;61787;42.022;23.078;2023-09-19T00:36:39;11.88;;;10.35;;
20014;SDS011;61787;42.022;23.078;2023-09-19T00:37:41;11.25;;;10.10;;
20014;SDS011;61787;42.022;23.078;2023-09-19T00:38:43;13.50;;;10.55;;
20014;SDS011;61787;42.022;23.078;2023-09-19T00:39:46;11.70;;;10.45;;
20014;SDS011;61787;42.022;23.078;2023-09-19T00:40:48;13.10;;;10.82;;
20014;SDS011;61787;42.022;23.078;2023-09-19T00:41:53;12.13;;;10.82;;
20014;SDS011;61787;42.022;23.078;2023-09-19T00:42:58;12.85;;;10.70;;
20014;SDS011;61787;42.022;23.078;2023-09-19T00:44:01;14.93;;;11.02;;
20014;SDS011;61787;42.022;23.078;2023-09-19T00:45:05;13.38;;;10.50;;
20014;SDS011;61787;42.022;23.078;2023-09-19T00:46:10;11.60;;;9.60;;
20014;SDS011;61787;42.022;23.078;2023-09-19T00:47:12;14.75;;;10.35;;
20014;SDS011;61787;42.022;23.078;2023-09-19T00:48:19;11.80;;;10.13;;
20014;SDS011;61787;42.022;23.078;2023-09-19T00:49:22;10.98;;;9.82;;
20014;SDS011;61787;42.022;23.078;2023-09-19T00:50:24;11.60;;;10.38;;
20014;SDS011;61787;42.022;23.078;2023-09-19T00:51:28;13.10;;;10.20;;
20014;SDS011;61787;42.022;23.078;2023-09-19T00:52:31;13.00;;;10.57;;
20014;SDS011;61787;42.022;23.078;2023-09-19T00:53:33;11.27;;;10.18;;
20014;SDS011;61787;42.022;23.078;2023-09-19T00:54:35;12.93;;;10.50;;
20014;SDS011;61787;42.022;23.078;2023-09-19T00:55:37;14.88;;;11.07;;
20014;SDS011;61787;42.022;23.078;2023-09-19T00:56:39;17.80;;;10.70;;
20014;SDS011;61787;42.022;23.078;2023-09-19T00:57:42;15.73;;;10.60;;
20014;SDS011;61787;42.022;23.078;2023-09-19T00:58:45;12.38;;;10.75;;
20014;SDS011;61787;42.022;23.078;2023-09-19T00:59:48;13.82;;;12.00;;
20014;SDS011;61787;42.022;23.078;2023-09-19T01:00:55;13.40;;;11.13;;
20014;SDS011;61787;42.022;23.078;2023-09-19T01:01:57;14.27;;;11.30;;
20014;SDS011;61787;42.022;23.078;2023-09-19T01:03:01;14.70;;;11.18;;
20014;SDS011;61787;42.022;23.078;2023-09-19T01:04:04;14.13;;;10.90;;
20014;SDS011;61787;42.022;23.078;2023-09-19T01:05:06;15.23;;;10.98;;
20014;SDS011;61787;42.022;23.078;2023-09-19T01:06:08;14.63;;;10.93;;
20014;SDS011;61787;42.022;23.078;2023-09-19T01:07:10;11.32;;;10.20;;
20014;SDS011;61787;42.022;23.078;2023-09-19T01:08:12;12.37;;;10.97;;
20014;SDS011;61787;42.022;23.078;2023-09-19T01:09:14;11.33;;;10.13;;
20014;SDS011;61787;42.022;23.078;2023-09-19T01:10:16;12.17;;;10.27;;
20014;SDS011;61787;42.022;23.078;2023-09-19T01:11:37;13.77;;;10.02;;
20014;SDS011;61787;42.022;23.078;2023-09-19T01:15:36;12.03;;;9.97;;
20014;SDS011;61787;42.022;23.078;2023-09-19T01:21:29;11.68;;;10.45;;
20014;SDS011;61787;42.022;23.078;2023-09-19T01:22:36;15.30;;;10.27;;
20014;SDS011;61787;42.022;23.078;2023-09-19T01:30:42;12.13;;;9.82;;
20014;SDS011;61787;42.022;23.078;2023-09-19T01:31:45;11.93;;;10.10;;
20014;SDS011;61787;42.022;23.078;2023-09-19T01:32:51;12.77;;;10.52;;
20014;SDS011;61787;42.022;23.078;2023-09-19T01:33:54;12.73;;;10.25;;
20014;SDS011;61787;42.022;23.078;2023-09-19T01:35:05;11.38;;;10.23;;
20014;SDS011;61787;42.022;23.078;2023-09-19T01:36:07;12.40;;;10.30;;
20014;SDS011;61787;42.022;23.078;2023-09-19T01:37:10;13.37;;;10.77;;
20014;SDS011;61787;42.022;23.078;2023-09-19T01:38:12;16.13;;;10.85;;
20014;SDS011;61787;42.022;23.078;2023-09-19T01:39:15;10.98;;;9.95;;
20014;SDS011;61787;42.022;23.078;2023-09-19T01:40:17;11.95;;;10.52;;
20014;SDS011;61787;42.022;23.078;2023-09-19T01:41:26;13.45;;;11.13;;
20014;SDS011;61787;42.022;23.078;2023-09-19T01:43:42;11.82;;;10.10;;
20014;SDS011;61787;42.022;23.078;2023-09-19T01:47:34;12.65;;;10.57;;
20014;SDS011;61787;42.022;23.078;2023-09-19T01:48:43;12.02;;;10.73;;
20014;SDS011;61787;42.022;23.078;2023-09-19T01:51:11;13.23;;;10.70;;
20014;SDS011;61787;42.022;23.078;2023-09-19T01:52:18;11.57;;;10.38;;
20014;SDS011;61787;42.022;23.078;2023-09-19T01:53:27;13.45;;;10.38;;
20014;SDS011;61787;42.022;23.078;2023-09-19T01:54:40;12.23;;;10.10;;
20014;SDS011;61787;42.022;23.078;2023-09-19T01:55:49;15.05;;;10.05;;
20014;SDS011;61787;42.022;23.078;2023-09-19T01:57:04;13.90;;;10.48;;
20014;SDS011;61787;42.022;23.078;2023-09-19T01:59:45;12.48;;;9.82;;
20014;SDS011;61787;42.022;23.078;2023-09-19T02:00:55;13.57;;;10.57;;
20014;SDS011;61787;42.022;23.078;2023-09-19T02:01:59;12.63;;;10.55;;
20014;SDS011;61787;42.022;23.078;2023-09-19T02:03:03;12.43;;;10.20;;
20014;SDS011;61787;42.022;23.078;2023-09-19T02:04:05;11.60;;;10.50;;
20014;SDS011;61787;42.022;23.078;2023-09-19T02:05:08;12.82;;;10.52;;
20014;SDS011;61787;42.022;23.078;2023-09-19T02:06:14;12.13;;;10.68;;
20014;SDS011;61787;42.022;23.078;2023-09-19T02:07:17;14.98;;;10.75;;
20014;SDS011;61787;42.022;23.078;2023-09-19T02:08:19;12.02;;;10.02;;
20014;SDS011;61787;42.022;23.078;2023-09-19T02:09:21;11.63;;;9.75;;
20014;SDS011;61787;42.022;23.078;2023-09-19T02:10:23;11.40;;;9.88;;
20014;SDS011;61787;42.022;23.078;2023-09-19T02:11:25;12.80;;;10.38;;
20014;SDS011;61787;42.022;23.078;2023-09-19T02:12:27;15.00;;;10.25;;
20014;SDS011;61787;42.022;23.078;2023-09-19T02:13:28;12.23;;;10.30;;
20014;SDS011;61787;42.022;23.078;2023-09-19T02:14:32;13.13;;;10.15;;
20014;SDS011;61787;42.022;23.078;2023-09-19T02:15:34;10.25;;;9.25;;
20014;SDS011;61787;42.022;23.078;2023-09-19T02:16:37;11.25;;;9.65;;
20014;SDS011;61787;42.022;23.078;2023-09-19T02:17:38;9.88;;;8.90;;
20014;SDS011;61787;42.022;23.078;2023-09-19T02:18:41;12.95;;;9.38;;
20014;SDS011;61787;42.022;23.078;2023-09-19T02:19:42;10.05;;;9.00;;
20014;SDS011;61787;42.022;23.078;2023-09-19T02:20:44;13.82;;;9.25;;
20014;SDS011;61787;42.022;23.078;2023-09-19T02:21:47;10.60;;;8.68;;
20014;SDS011;61787;42.022;23.078;2023-09-19T02:22:50;9.07;;;7.97;;
20014;SDS011;61787;42.022;23.078;2023-09-19T02:23:51;9.90;;;8.50;;
20014;SDS011;61787;42.022;23.078;2023-09-19T02:24:53;11.50;;;8.30;;
20014;SDS011;61787;42.022;23.078;2023-09-19T02:25:55;10.20;;;8.10;;
20014;SDS011;61787;42.022;23.078;2023-09-19T02:27:01;9.80;;;8.60;;
20014;SDS011;61787;42.022;23.078;2023-09-19T02:28:05;9.60;;;8.68;;
20014;SDS011;61787;42.022;23.078;2023-09-19T02:29:06;9.82;;;8.40;;
20014;SDS011;61787;42.022;23.078;2023-09-19T02:30:08;11.32;;;9.07;;
20014;SDS011;61787;42.022;23.078;2023-09-19T02:31:10;10.20;;;9.20;;
20014;SDS011;61787;42.022;23.078;2023-09-19T02:32:12;11.23;;;9.52;;
20014;SDS011;61787;42.022;23.078;2023-09-19T02:33:14;11.43;;;10.30;;
20014;SDS011;61787;42.022;23.078;2023-09-19T02:34:16;14.27;;;10.32;;
20014;SDS011;61787;42.022;23.078;2023-09-19T02:35:18;11.50;;;10.30;;
20014;SDS011;61787;42.022;23.078;2023-09-19T02:36:21;13.80;;;10.98;;
20014;SDS011;61787;42.022;23.078;2023-09-19T02:37:22;11.63;;;10.43;;
20014;SDS011;61787;42.022;23.078;2023-09-19T02:38:24;10.57;;;9.57;;
20014;SDS011;61787;42.022;23.078;2023-09-19T02:39:27;14.65;;;9.98;;
20014;SDS011;61787;42.022;23.078;2023-09-19T02:40:29;11.02;;;9.82;;
20014;SDS011;61787;42.022;23.078;2023-09-19T02:41:31;11.23;;;10.13;;
20014;SDS011;61787;42.022;23.078;2023-09-19T02:42:34;11.77;;;9.18;;
20014;SDS011;61787;42.022;23.078;2023-09-19T02:43:35;11.15;;;10.02;;
20014;SDS011;61787;42.022;23.078;2023-09-19T02:44:37;12.32;;;11.00;;
20014;SDS011;61787;42.022;23.078;2023-09-19T02:45:39;11.60;;;10.07;;
20014;SDS011;61787;42.022;23.078;2023-09-19T02:46:41;12.10;;;10.90;;
20014;SDS011;61787;42.022;23.078;2023-09-19T02:47:44;12.20;;;10.98;;
20014;SDS011;61787;42.022;23.078;2023-09-19T02:48:48;12.88;;;10.20;;
20014;SDS011;61787;42.022;23.078;2023-09-19T02:49:50;12.10;;;10.18;;
20014;SDS011;61787;42.022;23.078;2023-09-19T02:50:52;12.85;;;10.25;;
20014;SDS011;61787;42.022;23.078;2023-09-19T02:51:53;11.35;;;10.15;;
20014;SDS011;61787;42.022;23.078;2023-09-19T02:52:55;11.73;;;10.35;;
20014;SDS011;61787;42.022;23.078;2023-09-19T02:53:58;11.88;;;9.88;;
20014;SDS011;61787;42.022;23.078;2023-09-19T02:55:01;12.43;;;10.07;;
20014;SDS011;61787;42.022;23.078;2023-09-19T02:56:02;11.48;;;10.32;;
20014;SDS011;61787;42.022;23.078;2023-09-19T02:57:05;11.93;;;9.60;;
20014;SDS011;61787;42.022;23.078;2023-09-19T02:58:08;11.90;;;9.93;;
20014;SDS011;61787;42.022;23.078;2023-09-19T02:59:12;11.48;;;9.75;;
20014;SDS011;61787;42.022;23.078;2023-09-19T03:00:14;10.02;;;9.02;;
20014;SDS011;61787;42.022;23.078;2023-09-19T03:01:17;11.93;;;10.27;;
20014;SDS011;61787;42.022;23.078;2023-09-19T03:02:19;13.60;;;10.60;;
20014;SDS011;61787;42.022;23.078;2023-09-19T03:03:23;12.18;;;10.57;;
20014;SDS011;61787;42.022;23.078;2023-09-19T03:04:24;13.18;;;10.50;;
20014;SDS011;61787;42.022;23.078;2023-09-19T03:05:28;13.15;;;10.43;;
20014;SDS011;61787;42.022;23.078;2023-09-19T03:06:33;12.77;;;10.60;;
20014;SDS011;61787;42.022;23.078;2023-09-19T03:07:34;12.25;;;10.00;;
20014;SDS011;61787;42.022;23.078;2023-09-19T03:08:36;13.07;;;10.75;;
20014;SDS011;61787;42.022;23.078;2023-09-19T03:09:41;15.65;;;10.60;;
20014;SDS011;61787;42.022;23.078;2023-09-19T03:10:46;12.38;;;10.20;;
20014;SDS011;61787;42.022;23.078;2023-09-19T03:11:48;12.02;;;10.52;;
20014;SDS011;61787;42.022;23.078;2023-09-19T03:12:49;13.73;;;11.63;;
20014;SDS011;61787;42.022;23.078;2023-09-19T03:13:52;12.90;;;11.35;;
20014;SDS011;61787;42.022;23.078;2023-09-19T03:14:54;14.30;;;11.70;;
20014;SDS011;61787;42.022;23.078;2023-09-19T03:15:56;14.32;;;12.07;;
20014;SDS011;61787;42.022;23.078;2023-09-19T03:16:59;12.87;;;11.57;;
20014;SDS011;61787;42.022;23.078;2023-09-19T03:18:01;13.10;;;11.80;;
20014;SDS011;61787;42.022;23.078;2023-09-19T03:19:03;13.23;;;11.70;;
20014;SDS011;61787;42.022;23.078;2023-09-19T03:20:04;14.13;;;11.43;;
20014;SDS011;61787;42.022;23.078;2023-09-19T03:21:09;13.90;;;12.50;;
20014;SDS011;61787;42.022;23.078;2023-09-19T03:22:14;14.80;;;11.83;;
20014;SDS011;61787;42.022;23.078;2023-09-19T03:23:16;14.27;;;12.77;;
20014;SDS011;61787;42.022;23.078;2023-09-19T03:24:18;16.57;;;12.73;;
20014;SDS011;61787;42.022;23.078;2023-09-19T03:25:21;16.50;;;12.67;;
20014;SDS011;61787;42.022;23.078;2023-09-19T03:26:24;15.50;;;12.33;;
20014;SDS011;61787;42.022;23.078;2023-09-19T03:27:27;15.63;;;12.53;;
20014;SDS011;61787;42.022;23.078;2023-09-19T03:28:29;13.57;;;12.00;;
20014;SDS011;61787;42.022;23.078;2023-09-19T03:29:31;16.13;;;12.57;;
20014;SDS011;61787;42.022;23.078;2023-09-19T03:30:35;13.03;;;11.43;;
20014;SDS011;61787;42.022;23.078;2023-09-19T03:31:37;12.83;;;11.63;;
20014;SDS011;61787;42.022;23.078;2023-09-19T03:32:48;16.20;;;11.77;;
20014;SDS011;61787;42.022;23.078;2023-09-19T03:33:51;14.37;;;11.30;;
20014;SDS011;61787;42.022;23.078;2023-09-19T03:34:53;12.67;;;11.37;;
20014;SDS011;61787;42.022;23.078;2023-09-19T03:35:55;15.30;;;11.83;;
20014;SDS011;61787;42.022;23.078;2023-09-19T03:36:59;14.97;;;11.63;;
20014;SDS011;61787;42.022;23.078;2023-09-19T03:38:01;13.00;;;11.20;;
20014;SDS011;61787;42.022;23.078;2023-09-19T03:39:02;13.13;;;11.63;;
20014;SDS011;61787;42.022;23.078;2023-09-19T03:40:06;12.70;;;11.40;;
20014;SDS011;61787;42.022;23.078;2023-09-19T03:41:09;14.98;;;11.75;;
20014;SDS011;61787;42.022;23.078;2023-09-19T03:42:11;15.43;;;11.70;;
20014;SDS011;61787;42.022;23.078;2023-09-19T03:43:13;12.67;;;11.47;;
20014;SDS011;61787;42.022;23.078;2023-09-19T03:44:14;13.43;;;12.03;;
20014;SDS011;61787;42.022;23.078;2023-09-19T03:45:16;13.17;;;11.43;;
20014;SDS011;61787;42.022;23.078;2023-09-19T03:46:19;12.73;;;11.43;;
20014;SDS011;61787;42.022;23.078;2023-09-19T03:47:21;13.57;;;11.00;;
20014;SDS011;61787;42.022;23.078;2023-09-19T03:48:23;14.40;;;12.57;;
20014;SDS011;61787;42.022;23.078;2023-09-19T03:49:24;12.23;;;11.07;;
20014;SDS011;61787;42.022;23.078;2023-09-19T03:50:26;13.83;;;11.60;;
20014;SDS011;61787;42.022;23.078;2023-09-19T03:51:28;14.20;;;11.10;;
20014;SDS011;61787;42.022;23.078;2023-09-19T03:52:29;15.13;;;11.40;;
20014;SDS011;61787;42.022;23.078;2023-09-19T03:53:31;13.13;;;11.50;;
20014;SDS011;61787;42.022;23.078;2023-09-19T03:54:32;12.70;;;11.33;;
20014;SDS011;61787;42.022;23.078;2023-09-19T03:55:34;14.77;;;11.07;;
20014;SDS011;61787;42.022;23.078;2023-09-19T03:56:40;13.00;;;11.70;;
20014;SDS011;61787;42.022;23.078;2023-09-19T03:57:42;14.27;;;12.37;;
20014;SDS011;61787;42.022;23.078;2023-09-19T03:58:43;14.77;;;12.07;;
20014;SDS011;61787;42.022;23.078;2023-09-19T03:59:46;14.57;;;12.80;;
20014;SDS011;61787;42.022;23.078;2023-09-19T04:00:48;15.07;;;13.47;;
20014;SDS011;61787;42.022;23.078;2023-09-19T04:01:51;15.47;;;13.17;;
20014;SDS011;61787;42.022;23.078;2023-09-19T04:02:57;16.37;;;13.77;;
20014;SDS011;61787;42.022;23.078;2023-09-19T04:03:59;17.27;;;13.77;;
20014;SDS011;61787;42.022;23.078;2023-09-19T04:05:09;16.33;;;13.07;;
20014;SDS011;61787;42.022;23.078;2023-09-19T04:06:12;15.07;;;13.47;;
20014;SDS011;61787;42.022;23.078;2023-09-19T04:07:17;15.47;;;13.43;;
20014;SDS011;61787;42.022;23.078;2023-09-19T04:08:24;15.13;;;13.60;;
20014;SDS011;61787;42.022;23.078;2023-09-19T04:09:25;14.13;;;12.67;;
20014;SDS011;61787;42.022;23.078;2023-09-19T04:10:27;16.67;;;13.67;;
20014;SDS011;61787;42.022;23.078;2023-09-19T04:11:30;16.70;;;13.83;;
20014;SDS011;61787;42.022;23.078;2023-09-19T04:12:32;16.50;;;14.33;;
20014;SDS011;61787;42.022;23.078;2023-09-19T04:13:34;17.70;;;14.33;;
20014;SDS011;61787;42.022;23.078;2023-09-19T04:14:36;16.50;;;13.43;;
20014;SDS011;61787;42.022;23.078;2023-09-19T04:15:37;19.27;;;13.83;;
20014;SDS011;61787;42.022;23.078;2023-09-19T04:16:39;15.63;;;13.23;;
20014;SDS011;61787;42.022;23.078;2023-09-19T04:17:41;15.33;;;12.30;;
20014;SDS011;61787;42.022;23.078;2023-09-19T04:18:42;17.23;;;12.27;;
20014;SDS011;61787;42.022;23.078;2023-09-19T04:19:44;16.47;;;11.80;;
20014;SDS011;61787;42.022;23.078;2023-09-19T04:20:48;13.17;;;11.40;;
20014;SDS011;61787;42.022;23.078;2023-09-19T04:21:50;14.57;;;11.83;;
20014;SDS011;61787;42.022;23.078;2023-09-19T04:22:52;16.47;;;11.83;;
20014;SDS011;61787;42.022;23.078;2023-09-19T04:23:54;14.43;;;11.27;;
20014;SDS011;61787;42.022;23.078;2023-09-19T04:24:55;13.87;;;11.57;;
20014;SDS011;61787;42.022;23.078;2023-09-19T04:25:58;13.37;;;10.77;;
20014;SDS011;61787;42.022;23.078;2023-09-19T04:27:00;13.33;;;11.33;;
20014;SDS011;61787;42.022;23.078;2023-09-19T04:28:01;14.63;;;11.17;;
20014;SDS011;61787;42.022;23.078;2023-09-19T04:29:05;18.10;;;12.60;;
20014;SDS011;61787;42.022;23.078;2023-09-19T04:30:07;16.60;;;12.80;;
20014;SDS011;61787;42.022;23.078;2023-09-19T04:31:13;15.37;;;12.63;;
20014;SDS011;61787;42.022;23.078;2023-09-19T04:32:15;17.83;;;12.87;;
20014;SDS011;61787;42.022;23.078;2023-09-19T04:33:18;16.93;;;12.30;;
20014;SDS011;61787;42.022;23.078;2023-09-19T04:34:20;17.07;;;12.43;;
20014;SDS011;61787;42.022;23.078;2023-09-19T04:35:22;13.53;;;12.20;;
20014;SDS011;61787;42.022;23.078;2023-09-19T04:36:23;16.97;;;13.17;;
20014;SDS011;61787;42.022;23.078;2023-09-19T04:37:37;14.80;;;12.97;;
20014;SDS011;61787;42.022;23.078;2023-09-19T04:38:40;13.73;;;12.23;;
20014;SDS011;61787;42.022;23.078;2023-09-19T04:39:42;13.47;;;11.83;;
20014;SDS011;61787;42.022;23.078;2023-09-19T04:40:43;14.73;;;11.37;;
20014;SDS011;61787;42.022;23.078;2023-09-19T04:41:45;21.17;;;12.33;;
20014;SDS011;61787;42.022;23.078;2023-09-19T04:42:58;17.30;;;12.30;;
20014;SDS011;61787;42.022;23.078;2023-09-19T04:44:01;14.73;;;12.20;;
20014;SDS011;61787;42.022;23.078;2023-09-19T04:45:02;17.63;;;12.67;;
20014;SDS011;61787;42.022;23.078;2023-09-19T04:46:04;14.87;;;12.43;;
20014;SDS011;61787;42.022;23.078;2023-09-19T04:47:08;15.57;;;12.43;;
20014;SDS011;61787;42.022;23.078;2023-09-19T04:48:10;16.30;;;11.87;;
20014;SDS011;61787;42.022;23.078;2023-09-19T04:49:12;13.33;;;11.73;;
20014;SDS011;61787;42.022;23.078;2023-09-19T04:50:14;16.13;;;11.83;;
20014;SDS011;61787;42.022;23.078;2023-09-19T04:51:16;15.37;;;11.37;;
20014;SDS011;61787;42.022;23.078;2023-09-19T04:52:17;18.63;;;12.43;;
20014;SDS011;61787;42.022;23.078;2023-09-19T04:53:20;16.60;;;12.43;;
20014;SDS011;61787;42.022;23.078;2023-09-19T04:54:22;16.80;;;12.53;;
20014;SDS011;61787;42.022;23.078;2023-09-19T04:55:24;15.77;;;12.50;;
20014;SDS011;61787;42.022;23.078;2023-09-19T04:56:26;16.57;;;12.13;;
20014;SDS011;61787;42.022;23.078;2023-09-19T04:57:29;17.27;;;12.67;;
20014;SDS011;61787;42.022;23.078;2023-09-19T04:58:32;18.50;;;13.57;;
20014;SDS011;61787;42.022;23.078;2023-09-19T04:59:35;13.70;;;11.83;;
20014;SDS011;61787;42.022;23.078;2023-09-19T05:00:37;15.73;;;12.47;;
20014;SDS011;61787;42.022;23.078;2023-09-19T05:01:39;16.73;;;12.40;;
20014;SDS011;61787;42.022;23.078;2023-09-19T05:02:41;14.80;;;12.03;;
20014;SDS011;61787;42.022;23.078;2023-09-19T05:03:43;16.70;;;12.20;;
20014;SDS011;61787;42.022;23.078;2023-09-19T05:04:46;13.63;;;12.23;;
20014;SDS011;61787;42.022;23.078;2023-09-19T05:05:48;13.97;;;10.90;;
20014;SDS011;61787;42.022;23.078;2023-09-19T05:06:50;14.67;;;12.27;;
20014;SDS011;61787;42.022;23.078;2023-09-19T05:07:52;14.90;;;12.67;;
20014;SDS011;61787;42.022;23.078;2023-09-19T05:08:55;15.20;;;11.63;;
20014;SDS011;61787;42.022;23.078;2023-09-19T05:09:57;13.77;;;12.30;;
20014;SDS011;61787;42.022;23.078;2023-09-19T05:11:01;17.37;;;12.20;;
20014;SDS011;61787;42.022;23.078;2023-09-19T05:12:03;17.93;;;12.83;;
20014;SDS011;61787;42.022;23.078;2023-09-19T05:13:06;18.47;;;12.77;;
20014;SDS011;61787;42.022;23.078;2023-09-19T05:14:09;17.35;;;11.88;;
20014;SDS011;61787;42.022;23.078;2023-09-19T05:15:10;14.27;;;12.43;;
20014;SDS011;61787;42.022;23.078;2023-09-19T05:16:12;13.70;;;11.87;;
20014;SDS011;61787;42.022;23.078;2023-09-19T05:17:14;14.67;;;12.03;;
20014;SDS011;61787;42.022;23.078;2023-09-19T05:18:18;15.47;;;11.27;;
20014;SDS011;61787;42.022;23.078;2023-09-19T05:19:20;15.67;;;12.10;;
20014;SDS011;61787;42.022;23.078;2023-09-19T05:20:21;21.20;;;11.93;;
20014;SDS011;61787;42.022;23.078;2023-09-19T05:21:34;16.07;;;12.47;;
20014;SDS011;61787;42.022;23.078;2023-09-19T05:22:36;15.90;;;12.23;;
20014;SDS011;61787;42.022;23.078;2023-09-19T05:23:41;14.90;;;11.90;;
20014;SDS011;61787;42.022;23.078;2023-09-19T05:24:43;18.13;;;11.93;;
20014;SDS011;61787;42.022;23.078;2023-09-19T05:25:49;18.07;;;13.30;;
20014;SDS011;61787;42.022;23.078;2023-09-19T05:26:52;13.53;;;12.00;;
20014;SDS011;61787;42.022;23.078;2023-09-19T05:27:54;17.37;;;12.60;;
20014;SDS011;61787;42.022;23.078;2023-09-19T05:28:56;18.75;;;13.02;;
20014;SDS011;61787;42.022;23.078;2023-09-19T05:29:58;17.83;;;13.40;;
20014;SDS011;61787;42.022;23.078;2023-09-19T05:31:02;17.43;;;13.57;;
20014;SDS011;61787;42.022;23.078;2023-09-19T05:32:04;18.83;;;13.30;;
20014;SDS011;61787;42.022;23.078;2023-09-19T05:33:08;16.73;;;14.60;;
20014;SDS011;61787;42.022;23.078;2023-09-19T05:34:10;18.53;;;13.93;;
20014;SDS011;61787;42.022;23.078;2023-09-19T05:35:12;18.23;;;14.43;;
20014;SDS011;61787;42.022;23.078;2023-09-19T05:36:14;18.10;;;13.60;;
20014;SDS011;61787;42.022;23.078;2023-09-19T05:37:18;19.07;;;13.53;;
20014;SDS011;61787;42.022;23.078;2023-09-19T05:38:20;17.70;;;13.50;;
20014;SDS011;61787;42.022;23.078;2023-09-19T05:39:22;17.97;;;13.27;;
20014;SDS011;61787;42.022;23.078;2023-09-19T05:40:24;14.93;;;13.20;;
20014;SDS011;61787;42.022;23.078;2023-09-19T05:41:26;16.23;;;13.00;;
20014;SDS011;61787;42.022;23.078;2023-09-19T05:42:28;20.37;;;12.63;;
20014;SDS011;61787;42.022;23.078;2023-09-19T05:43:30;14.73;;;13.00;;
20014;SDS011;61787;42.022;23.078;2023-09-19T05:44:31;16.93;;;13.47;;
20014;SDS011;61787;42.022;23.078;2023-09-19T05:45:34;18.73;;;14.47;;
20014;SDS011;61787;42.022;23.078;2023-09-19T05:46:37;19.33;;;13.73;;
20014;SDS011;61787;42.022;23.078;2023-09-19T05:47:40;14.70;;;13.23;;
20014;SDS011;61787;42.022;23.078;2023-09-19T05:48:47;17.47;;;12.87;;
20014;SDS011;61787;42.022;23.078;2023-09-19T05:49:49;16.03;;;13.10;;
20014;SDS011;61787;42.022;23.078;2023-09-19T05:50:52;22.03;;;13.40;;
20014;SDS011;61787;42.022;23.078;2023-09-19T05:51:53;18.03;;;13.80;;
20014;SDS011;61787;42.022;23.078;2023-09-19T05:52:57;19.33;;;13.63;;
20014;SDS011;61787;42.022;23.078;2023-09-19T05:53:59;18.77;;;14.47;;
20014;SDS011;61787;42.022;23.078;2023-09-19T05:55:01;21.27;;;13.87;;
20014;SDS011;61787;42.022;23.078;2023-09-19T05:56:02;16.43;;;13.77;;
20014;SDS011;61787;42.022;23.078;2023-09-19T05:57:04;19.67;;;15.47;;
20014;SDS011;61787;42.022;23.078;2023-09-19T05:58:05;21.43;;;14.87;;
20014;SDS011;61787;42.022;23.078;2023-09-19T05:59:07;20.80;;;15.47;;
20014;SDS011;61787;42.022;23.078;2023-09-19T06:00:10;17.70;;;14.43;;
20014;SDS011;61787;42.022;23.078;2023-09-19T06:01:12;19.37;;;15.10;;
20014;SDS011;61787;42.022;23.078;2023-09-19T06:02:14;17.90;;;14.17;;
20014;SDS011;61787;42.022;23.078;2023-09-19T06:03:16;19.40;;;13.80;;
20014;SDS011;61787;42.022;23.078;2023-09-19T06:04:20;17.47;;;13.70;;
20014;SDS011;61787;42.022;23.078;2023-09-19T06:05:23;18.93;;;14.50;;
20014;SDS011;61787;42.022;23.078;2023-09-19T06:06:26;22.60;;;14.60;;
20014;SDS011;61787;42.022;23.078;2023-09-19T06:07:27;20.97;;;14.80;;
20014;SDS011;61787;42.022;23.078;2023-09-19T06:08:37;19.27;;;14.57;;
20014;SDS011;61787;42.022;23.078;2023-09-19T06:09:39;16.33;;;14.60;;
20014;SDS011;61787;42.022;23.078;2023-09-19T06:10:40;19.30;;;14.40;;
20014;SDS011;61787;42.022;23.078;2023-09-19T06:11:42;22.70;;;15.07;;
20014;SDS011;61787;42.022;23.078;2023-09-19T06:12:44;20.67;;;15.00;;
20014;SDS011;61787;42.022;23.078;2023-09-19T06:13:46;25.00;;;15.33;;
20014;SDS011;61787;42.022;23.078;2023-09-19T06:14:48;22.50;;;15.17;;
20014;SDS011;61787;42.022;23.078;2023-09-19T06:15:50;19.80;;;14.67;;
20014;SDS011;61787;42.022;23.078;2023-09-19T06:16:52;21.60;;;14.73;;
20014;SDS011;61787;42.022;23.078;2023-09-19T06:17:55;19.63;;;14.37;;
20014;SDS011;61787;42.022;23.078;2023-09-19T06:18:58;15.73;;;13.43;;
20014;SDS011;61787;42.022;23.078;2023-09-19T06:20:03;20.60;;;13.97;;
20014;SDS011;61787;42.022;23.078;2023-09-19T06:21:11;17.80;;;13.47;;
20014;SDS011;61787;42.022;23.078;2023-09-19T06:22:14;18.48;;;13.93;;
20014;SDS011;61787;42.022;23.078;2023-09-19T06:23:20;20.43;;;13.93;;
20014;SDS011;61787;42.022;23.078;2023-09-19T06:24:22;19.40;;;14.15;;
20014;SDS011;61787;42.022;23.078;2023-09-19T06:25:24;19.33;;;13.85;;
20014;SDS011;61787;42.022;23.078;2023-09-19T06:26:25;20.15;;;13.18;;